createdAt,value
2023-02-03T00:02:51.516Z,0
2023-02-03T00:07:55.628Z,0
2023-02-03T00:12:59.818Z,0
2023-02-03T00:18:03.981Z,0
2023-02-03T00:23:08.291Z,0
2023-02-03T00:28:12.332Z,0
2023-02-03T00:33:16.482Z,0
2023-02-03T00:38:20.601Z,0
2023-02-03T00:43:24.803Z,0
2023-02-03T00:48:28.926Z,0
2023-02-03T00:53:33.130Z,0
2023-02-03T00:58:37.281Z,0
2023-02-03T01:03:39.545Z,0
2023-02-03T01:08:43.722Z,0
2023-02-03T01:13:47.864Z,0
2023-02-03T01:18:52.016Z,0
2023-02-03T01:23:56.200Z,0
2023-02-03T01:29:00.363Z,0
2023-02-03T01:34:04.489Z,0
2023-02-03T01:39:08.688Z,0
2023-02-03T01:44:12.859Z,0
2023-02-03T01:49:16.981Z,0
2023-02-03T01:54:21.166Z,0
2023-02-03T01:59:25.310Z,0
2023-02-03T02:04:29.491Z,0
2023-02-03T02:09:33.672Z,0
2023-02-03T02:14:37.821Z,0
2023-02-03T02:19:41.971Z,0
2023-02-03T02:24:46.154Z,0
2023-02-03T02:29:50.302Z,0
2023-02-03T02:34:54.461Z,0
2023-02-03T02:39:58.626Z,0
2023-02-03T02:45:02.795Z,0
2023-02-03T02:50:05.088Z,0
2023-02-03T02:55:09.213Z,0
2023-02-03T03:00:11.529Z,0
2023-02-03T03:05:15.743Z,0
2023-02-03T03:10:19.809Z,0
2023-02-03T03:15:23.979Z,0
2023-02-03T03:20:28.575Z,0
2023-02-03T03:25:32.298Z,0
2023-02-03T03:30:36.558Z,0
2023-02-03T03:35:40.633Z,0
2023-02-03T03:40:44.771Z,0
2023-02-03T03:45:48.972Z,0
2023-02-03T03:50:53.100Z,0
2023-02-03T03:55:57.244Z,0
2023-02-03T04:01:01.682Z,0
2023-02-03T04:06:05.610Z,0
2023-02-03T04:11:09.770Z,0
2023-02-03T04:16:13.953Z,0
2023-02-03T04:21:18.098Z,0
2023-02-03T04:26:22.276Z,0
2023-02-03T04:31:26.515Z,0
2023-02-03T04:36:30.593Z,0
2023-02-03T04:41:34.743Z,0
2023-02-03T04:46:36.991Z,0
2023-02-03T04:51:41.261Z,0
2023-02-03T04:56:43.444Z,0
2023-02-03T05:01:47.586Z,0
2023-02-03T05:06:49.899Z,0
2023-02-03T05:11:54.058Z,0
2023-02-03T05:16:58.235Z,0
2023-02-03T05:22:02.389Z,0
2023-02-03T05:27:06.532Z,0
2023-02-03T05:32:10.797Z,0
2023-02-03T05:37:14.847Z,0
2023-02-03T05:42:19.009Z,0
2023-02-03T05:47:23.181Z,0
2023-02-03T05:52:27.370Z,0
2023-02-03T05:57:32.420Z,0
2023-02-03T06:02:35.664Z,0
2023-02-03T06:07:39.797Z,0
2023-02-03T06:12:43.968Z,0
2023-02-03T06:17:48.152Z,0
2023-02-03T06:22:52.281Z,0
2023-02-03T06:27:56.530Z,0
2023-02-03T06:33:00.635Z,0
2023-02-03T06:38:02.900Z,0
2023-02-03T06:43:07.100Z,0
2023-02-03T06:48:11.249Z,0
2023-02-03T06:53:13.511Z,1
2023-02-03T06:58:17.705Z,3
2023-02-03T07:03:21.834Z,5
2023-02-03T07:08:26.023Z,12
2023-02-03T07:13:30.144Z,28
2023-02-03T07:18:47.773Z,44
2023-02-03T07:23:38.449Z,43
2023-02-03T07:28:42.644Z,65
2023-02-03T07:33:46.807Z,80
2023-02-03T07:38:50.946Z,60
2023-02-03T07:43:55.141Z,82
2023-02-03T07:48:59.273Z,104
2023-02-03T07:54:03.424Z,133
2023-02-03T07:59:07.589Z,124
2023-02-03T08:04:11.745Z,151
2023-02-03T08:09:15.941Z,171
2023-02-03T08:14:20.114Z,215
2023-02-03T08:19:24.249Z,260
2023-02-03T08:24:28.438Z,262
2023-02-03T08:29:32.599Z,290
2023-02-03T08:34:36.710Z,325
2023-02-03T08:39:39.001Z,356
2023-02-03T08:44:43.192Z,335
2023-02-03T08:49:45.450Z,343
2023-02-03T08:54:49.585Z,417
2023-02-03T08:59:53.792Z,451
2023-02-03T09:04:56.084Z,445
2023-02-03T09:10:00.252Z,539
2023-02-03T09:15:04.343Z,492
2023-02-03T09:20:08.605Z,544
2023-02-03T09:25:12.700Z,560
2023-02-03T09:30:16.843Z,495
2023-02-03T09:35:20.994Z,506
2023-02-03T09:40:25.713Z,619
2023-02-03T09:45:29.361Z,651
2023-02-03T09:50:33.501Z,829
2023-02-03T09:55:37.668Z,850
2023-02-03T10:00:41.834Z,974
2023-02-03T10:05:46.008Z,1105
2023-02-03T10:10:50.112Z,1344
2023-02-03T10:15:54.287Z,1465
2023-02-03T10:20:58.464Z,1141
2023-02-03T10:26:02.654Z,1013
2023-02-03T10:31:06.913Z,1030
2023-02-03T10:36:10.945Z,950
2023-02-03T10:41:15.259Z,1217
2023-02-03T10:46:19.385Z,977
2023-02-03T10:51:21.581Z,1026
2023-02-03T10:56:25.710Z,1080
2023-02-03T11:01:28.056Z,934
2023-02-03T11:06:32.159Z,1107
2023-02-03T11:11:36.357Z,807
2023-02-03T11:16:43.358Z,1046
2023-02-03T11:21:44.643Z,915
2023-02-03T11:26:48.866Z,903
2023-02-03T11:31:53.125Z,770
2023-02-03T11:36:57.126Z,1089
2023-02-03T11:42:01.417Z,1065
2023-02-03T11:47:05.431Z,781
2023-02-03T11:52:09.594Z,1756
2023-02-03T11:57:13.767Z,1313
2023-02-03T12:02:17.923Z,1440
2023-02-03T12:07:22.073Z,1264
2023-02-03T12:12:26.265Z,1407
2023-02-03T12:17:30.414Z,836
2023-02-03T12:22:34.572Z,880
2023-02-03T12:27:38.775Z,979
2023-02-03T12:32:42.907Z,1009
2023-02-03T12:37:47.058Z,997
2023-02-03T12:42:51.247Z,965
2023-02-03T12:47:53.497Z,642
2023-02-03T12:52:57.673Z,670
2023-02-03T12:57:59.913Z,1250
2023-02-03T13:03:04.069Z,2049
2023-02-03T13:08:08.267Z,1870
2023-02-03T13:13:12.417Z,4017
2023-02-03T13:18:16.646Z,1289
2023-02-03T13:23:20.750Z,2257
2023-02-03T13:28:24.894Z,3549
2023-02-03T13:33:29.035Z,1910
2023-02-03T13:38:33.253Z,2199
2023-02-03T13:43:39.163Z,1596
2023-02-03T13:48:41.556Z,1567
2023-02-03T13:53:45.733Z,1055
2023-02-03T13:58:51.397Z,830
2023-02-03T14:03:54.186Z,580
2023-02-03T14:08:58.204Z,367
2023-02-03T14:14:02.330Z,264
2023-02-03T14:19:06.481Z,360
2023-02-03T14:24:10.657Z,698
2023-02-03T14:29:14.802Z,935
2023-02-03T14:34:19.003Z,1021
2023-02-03T14:39:23.131Z,685
2023-02-03T14:44:25.411Z,723
2023-02-03T14:49:29.615Z,819
2023-02-03T14:54:31.883Z,748
2023-02-03T14:59:36.190Z,510
2023-02-03T15:04:40.281Z,632
2023-02-03T15:09:44.335Z,403
2023-02-03T15:14:48.486Z,502
2023-02-03T15:19:52.702Z,515
2023-02-03T15:24:56.835Z,485
2023-02-03T15:30:00.993Z,516
2023-02-03T15:35:05.151Z,592
2023-02-03T15:40:09.316Z,604
2023-02-03T15:45:13.491Z,497
2023-02-03T15:50:17.627Z,520
2023-02-03T15:55:21.818Z,375
2023-02-03T16:00:25.945Z,345
2023-02-03T16:05:30.440Z,273
2023-02-03T16:10:34.339Z,231
2023-02-03T16:15:38.433Z,167
2023-02-03T16:20:42.642Z,104
2023-02-03T16:25:46.794Z,65
2023-02-03T16:30:51.019Z,48
2023-02-03T16:35:56.161Z,32
2023-02-03T16:40:57.349Z,17
2023-02-03T16:46:01.649Z,9
2023-02-03T16:51:03.792Z,3
2023-02-03T16:56:08.008Z,0
2023-02-03T17:01:12.230Z,0
2023-02-03T17:06:16.276Z,0
2023-02-03T17:11:20.476Z,0
2023-02-03T17:16:24.733Z,0
2023-02-03T17:21:28.815Z,0
2023-02-03T17:26:32.965Z,0
2023-02-03T17:31:37.142Z,0
2023-02-03T17:36:41.273Z,0
2023-02-03T17:56:57.951Z,0
2023-02-03T18:02:02.344Z,0
2023-02-03T18:07:06.180Z,0
2023-02-03T18:12:10.375Z,0
2023-02-03T18:17:14.568Z,0
2023-02-03T18:22:18.678Z,0
2023-02-03T18:27:22.879Z,0
2023-02-03T18:32:26.991Z,0
2023-02-03T18:37:29.299Z,0
2023-02-03T18:42:33.464Z,0
2023-02-03T18:47:35.766Z,0
2023-02-03T18:52:39.921Z,0
2023-02-03T18:57:44.069Z,0
2023-02-03T19:02:48.243Z,0
2023-02-03T19:07:52.396Z,0
2023-02-03T19:12:56.626Z,0
2023-02-03T19:18:00.734Z,0
2023-02-03T19:23:04.921Z,0
2023-02-03T19:28:14.289Z,0
2023-02-03T19:33:13.210Z,0
2023-02-03T19:38:17.357Z,0
2023-02-03T19:43:21.516Z,0
2023-02-03T19:48:25.729Z,0
2023-02-03T19:53:29.842Z,0
2023-02-03T19:58:34.028Z,0
2023-02-03T20:03:38.213Z,0
2023-02-03T20:08:42.346Z,0
2023-02-03T20:13:46.582Z,0
2023-02-03T20:18:50.703Z,0
2023-02-03T20:23:54.820Z,0
2023-02-03T20:28:59.012Z,0
2023-02-03T20:34:01.274Z,0
2023-02-03T20:39:05.433Z,0
2023-02-03T20:44:07.740Z,0
2023-02-03T20:49:11.888Z,0
2023-02-03T20:54:16.047Z,0
2023-02-03T20:59:20.190Z,0
2023-02-03T21:04:24.396Z,0
2023-02-03T21:09:28.559Z,0
2023-02-03T21:14:32.700Z,0
2023-02-03T21:19:36.870Z,0
2023-02-03T21:24:41.015Z,0
2023-02-03T21:29:45.166Z,0
2023-02-03T21:34:49.363Z,0
2023-02-03T21:39:53.512Z,0
2023-02-03T21:44:57.658Z,0
2023-02-03T21:50:01.827Z,0
2023-02-03T21:55:06.006Z,0
2023-02-03T22:00:10.139Z,0
2023-02-03T22:05:14.319Z,0
2023-02-03T22:10:18.473Z,0
2023-02-03T22:15:22.679Z,0
2023-02-03T22:20:26.844Z,0
2023-02-03T22:25:31.124Z,0
2023-02-03T22:30:33.729Z,0
2023-02-03T22:35:37.428Z,0
2023-02-03T22:40:39.658Z,0
2023-02-03T22:45:43.884Z,0
2023-02-03T22:50:47.999Z,0
2023-02-03T22:55:52.176Z,0
2023-02-03T23:00:56.311Z,0
2023-02-03T23:06:00.484Z,0
2023-02-03T23:11:04.695Z,0
2023-02-03T23:16:08.861Z,0
2023-02-03T23:21:13.064Z,0
2023-02-03T23:26:17.225Z,0
2023-02-03T23:36:23.716Z,0
2023-02-03T23:41:27.750Z,0
2023-02-03T23:46:33.967Z,0
2023-02-03T23:51:36.070Z,0
2023-02-03T23:56:40.191Z,0
